sensor_id;sensor_type;location;lat;lon;timestamp;P1;durP1;ratioP1;P2;durP2;ratioP2
75429;SDS011;64127;51.488;5.462;2022-11-20T00:00:55;10.60;;;9.43;;
75429;SDS011;64127;51.488;5.462;2022-11-20T00:03:27;11.13;;;9.33;;
75429;SDS011;64127;51.488;5.462;2022-11-20T00:05:59;10.80;;;9.67;;
75429;SDS011;64127;51.488;5.462;2022-11-20T00:08:33;10.60;;;9.50;;
75429;SDS011;64127;51.488;5.462;2022-11-20T00:11:15;9.60;;;8.63;;
75429;SDS011;64127;51.488;5.462;2022-11-20T00:13:51;10.77;;;9.67;;
75429;SDS011;64127;51.488;5.462;2022-11-20T00:16:26;10.63;;;9.53;;
75429;SDS011;64127;51.488;5.462;2022-11-20T00:19:01;10.57;;;9.47;;
75429;SDS011;64127;51.488;5.462;2022-11-20T00:21:33;10.37;;;9.30;;
75429;SDS011;64127;51.488;5.462;2022-11-20T00:24:05;10.30;;;9.30;;
75429;SDS011;64127;51.488;5.462;2022-11-20T00:26:40;11.77;;;10.10;;
75429;SDS011;64127;51.488;5.462;2022-11-20T00:29:12;10.50;;;9.33;;
75429;SDS011;64127;51.488;5.462;2022-11-20T00:31:44;10.70;;;9.60;;
75429;SDS011;64127;51.488;5.462;2022-11-20T00:34:16;11.33;;;10.13;;
75429;SDS011;64127;51.488;5.462;2022-11-20T00:36:48;10.60;;;9.50;;
75429;SDS011;64127;51.488;5.462;2022-11-20T00:39:20;11.20;;;10.10;;
75429;SDS011;64127;51.488;5.462;2022-11-20T00:41:52;11.23;;;10.13;;
75429;SDS011;64127;51.488;5.462;2022-11-20T00:44:24;11.27;;;10.17;;
75429;SDS011;64127;51.488;5.462;2022-11-20T00:46:56;10.67;;;9.63;;
75429;SDS011;64127;51.488;5.462;2022-11-20T00:49:28;10.67;;;9.57;;
75429;SDS011;64127;51.488;5.462;2022-11-20T00:52:00;10.73;;;9.47;;
75429;SDS011;64127;51.488;5.462;2022-11-20T00:54:32;12.43;;;10.20;;
75429;SDS011;64127;51.488;5.462;2022-11-20T00:57:04;11.27;;;9.60;;
75429;SDS011;64127;51.488;5.462;2022-11-20T00:59:36;10.63;;;9.53;;
75429;SDS011;64127;51.488;5.462;2022-11-20T01:02:08;11.10;;;9.90;;
75429;SDS011;64127;51.488;5.462;2022-11-20T01:04:39;11.07;;;9.97;;
75429;SDS011;64127;51.488;5.462;2022-11-20T01:07:11;10.77;;;9.67;;
75429;SDS011;64127;51.488;5.462;2022-11-20T01:09:43;12.27;;;10.07;;
75429;SDS011;64127;51.488;5.462;2022-11-20T01:12:15;11.90;;;9.97;;
75429;SDS011;64127;51.488;5.462;2022-11-20T01:14:47;11.67;;;10.43;;
75429;SDS011;64127;51.488;5.462;2022-11-20T01:17:19;11.77;;;9.90;;
75429;SDS011;64127;51.488;5.462;2022-11-20T01:19:51;11.30;;;10.20;;
75429;SDS011;64127;51.488;5.462;2022-11-20T01:22:23;10.87;;;9.77;;
75429;SDS011;64127;51.488;5.462;2022-11-20T01:24:55;11.77;;;10.57;;
75429;SDS011;64127;51.488;5.462;2022-11-20T01:27:27;11.00;;;9.90;;
75429;SDS011;64127;51.488;5.462;2022-11-20T01:29:59;11.07;;;9.97;;
75429;SDS011;64127;51.488;5.462;2022-11-20T01:32:31;11.60;;;10.40;;
75429;SDS011;64127;51.488;5.462;2022-11-20T01:35:03;11.30;;;10.10;;
75429;SDS011;64127;51.488;5.462;2022-11-20T01:37:36;11.60;;;9.97;;
75429;SDS011;64127;51.488;5.462;2022-11-20T01:40:08;11.70;;;10.33;;
75429;SDS011;64127;51.488;5.462;2022-11-20T01:42:44;10.50;;;9.40;;
75429;SDS011;64127;51.488;5.462;2022-11-20T01:48:58;11.00;;;9.87;;
75429;SDS011;64127;51.488;5.462;2022-11-20T01:51:40;10.97;;;9.87;;
75429;SDS011;64127;51.488;5.462;2022-11-20T01:54:21;11.20;;;10.00;;
75429;SDS011;64127;51.488;5.462;2022-11-20T01:57:13;11.27;;;10.07;;
75429;SDS011;64127;51.488;5.462;2022-11-20T01:59:49;11.93;;;10.73;;
75429;SDS011;64127;51.488;5.462;2022-11-20T02:02:28;10.70;;;9.60;;
75429;SDS011;64127;51.488;5.462;2022-11-20T02:05:00;11.63;;;10.43;;
75429;SDS011;64127;51.488;5.462;2022-11-20T02:07:59;10.27;;;9.27;;
75429;SDS011;64127;51.488;5.462;2022-11-20T02:10:33;10.63;;;9.53;;
75429;SDS011;64127;51.488;5.462;2022-11-20T02:13:06;12.17;;;10.03;;
75429;SDS011;64127;51.488;5.462;2022-11-20T02:15:58;10.67;;;9.57;;
75429;SDS011;64127;51.488;5.462;2022-11-20T02:18:30;11.53;;;10.20;;
75429;SDS011;64127;51.488;5.462;2022-11-20T02:21:05;9.90;;;8.80;;
75429;SDS011;64127;51.488;5.462;2022-11-20T02:26:59;11.30;;;9.67;;
75429;SDS011;64127;51.488;5.462;2022-11-20T02:29:53;10.30;;;9.20;;
75429;SDS011;64127;51.488;5.462;2022-11-20T02:32:35;11.13;;;9.97;;
75429;SDS011;64127;51.488;5.462;2022-11-20T02:35:35;10.93;;;9.83;;
75429;SDS011;64127;51.488;5.462;2022-11-20T02:38:01;10.63;;;9.53;;
75429;SDS011;64127;51.488;5.462;2022-11-20T02:40:34;11.20;;;10.00;;
75429;SDS011;64127;51.488;5.462;2022-11-20T02:43:06;11.07;;;9.77;;
75429;SDS011;64127;51.488;5.462;2022-11-20T02:45:39;11.70;;;10.47;;
75429;SDS011;64127;51.488;5.462;2022-11-20T02:48:11;12.27;;;10.97;;
75429;SDS011;64127;51.488;5.462;2022-11-20T02:50:43;13.33;;;12.03;;
75429;SDS011;64127;51.488;5.462;2022-11-20T02:53:14;14.10;;;12.60;;
75429;SDS011;64127;51.488;5.462;2022-11-20T02:55:46;15.17;;;13.27;;
75429;SDS011;64127;51.488;5.462;2022-11-20T02:58:18;19.30;;;17.13;;
75429;SDS011;64127;51.488;5.462;2022-11-20T03:00:52;22.17;;;19.70;;
75429;SDS011;64127;51.488;5.462;2022-11-20T03:03:24;23.10;;;20.13;;
75429;SDS011;64127;51.488;5.462;2022-11-20T03:05:58;21.90;;;18.67;;
75429;SDS011;64127;51.488;5.462;2022-11-20T03:08:31;22.20;;;19.27;;
75429;SDS011;64127;51.488;5.462;2022-11-20T03:11:04;20.67;;;17.97;;
75429;SDS011;64127;51.488;5.462;2022-11-20T03:13:38;20.80;;;18.23;;
75429;SDS011;64127;51.488;5.462;2022-11-20T03:16:11;21.47;;;16.73;;
75429;SDS011;64127;51.488;5.462;2022-11-20T03:18:46;17.80;;;15.83;;
75429;SDS011;64127;51.488;5.462;2022-11-20T03:21:18;17.23;;;15.43;;
75429;SDS011;64127;51.488;5.462;2022-11-20T03:23:50;16.07;;;14.20;;
75429;SDS011;64127;51.488;5.462;2022-11-20T03:26:25;15.30;;;13.57;;
75429;SDS011;64127;51.488;5.462;2022-11-20T03:28:59;14.47;;;12.63;;
75429;SDS011;64127;51.488;5.462;2022-11-20T03:31:36;14.30;;;12.80;;
75429;SDS011;64127;51.488;5.462;2022-11-20T03:34:11;14.60;;;13.03;;
75429;SDS011;64127;51.488;5.462;2022-11-20T03:36:44;14.17;;;12.67;;
75429;SDS011;64127;51.488;5.462;2022-11-20T03:39:16;14.33;;;12.60;;
75429;SDS011;64127;51.488;5.462;2022-11-20T03:41:48;14.70;;;13.00;;
75429;SDS011;64127;51.488;5.462;2022-11-20T03:44:20;14.50;;;13.00;;
75429;SDS011;64127;51.488;5.462;2022-11-20T03:46:53;14.17;;;12.67;;
75429;SDS011;64127;51.488;5.462;2022-11-20T03:49:25;14.80;;;11.73;;
75429;SDS011;64127;51.488;5.462;2022-11-20T03:51:57;13.50;;;12.10;;
75429;SDS011;64127;51.488;5.462;2022-11-20T03:54:29;16.33;;;14.63;;
75429;SDS011;64127;51.488;5.462;2022-11-20T03:57:01;17.63;;;15.73;;
75429;SDS011;64127;51.488;5.462;2022-11-20T03:59:33;19.40;;;17.30;;
75429;SDS011;64127;51.488;5.462;2022-11-20T04:02:05;20.50;;;16.50;;
75429;SDS011;64127;51.488;5.462;2022-11-20T04:04:37;19.40;;;17.10;;
75429;SDS011;64127;51.488;5.462;2022-11-20T04:07:09;19.47;;;16.90;;
75429;SDS011;64127;51.488;5.462;2022-11-20T04:09:41;18.47;;;15.70;;
75429;SDS011;64127;51.488;5.462;2022-11-20T04:12:13;17.47;;;15.57;;
75429;SDS011;64127;51.488;5.462;2022-11-20T04:14:45;18.33;;;15.17;;
75429;SDS011;64127;51.488;5.462;2022-11-20T04:17:17;16.37;;;13.93;;
75429;SDS011;64127;51.488;5.462;2022-11-20T04:19:49;15.93;;;14.13;;
75429;SDS011;64127;51.488;5.462;2022-11-20T04:22:21;18.43;;;15.00;;
75429;SDS011;64127;51.488;5.462;2022-11-20T04:24:52;18.67;;;16.67;;
75429;SDS011;64127;51.488;5.462;2022-11-20T04:27:24;21.13;;;18.37;;
75429;SDS011;64127;51.488;5.462;2022-11-20T04:29:56;20.57;;;18.37;;
75429;SDS011;64127;51.488;5.462;2022-11-20T04:32:28;21.43;;;19.13;;
75429;SDS011;64127;51.488;5.462;2022-11-20T04:35:00;21.00;;;18.37;;
75429;SDS011;64127;51.488;5.462;2022-11-20T04:37:32;21.07;;;18.63;;
75429;SDS011;64127;51.488;5.462;2022-11-20T04:40:05;30.60;;;18.43;;
75429;SDS011;64127;51.488;5.462;2022-11-20T04:42:37;20.87;;;17.20;;
75429;SDS011;64127;51.488;5.462;2022-11-20T04:45:09;17.93;;;16.00;;
75429;SDS011;64127;51.488;5.462;2022-11-20T04:47:41;18.80;;;16.50;;
75429;SDS011;64127;51.488;5.462;2022-11-20T04:50:13;18.40;;;16.47;;
75429;SDS011;64127;51.488;5.462;2022-11-20T04:52:45;20.20;;;17.93;;
75429;SDS011;64127;51.488;5.462;2022-11-20T04:55:17;19.40;;;16.50;;
75429;SDS011;64127;51.488;5.462;2022-11-20T04:57:50;18.17;;;16.13;;
75429;SDS011;64127;51.488;5.462;2022-11-20T05:00:22;17.33;;;14.77;;
75429;SDS011;64127;51.488;5.462;2022-11-20T05:02:54;17.17;;;14.03;;
75429;SDS011;64127;51.488;5.462;2022-11-20T05:05:26;15.63;;;14.00;;
75429;SDS011;64127;51.488;5.462;2022-11-20T05:07:58;16.27;;;14.23;;
75429;SDS011;64127;51.488;5.462;2022-11-20T05:10:30;16.57;;;14.00;;
75429;SDS011;64127;51.488;5.462;2022-11-20T05:13:02;15.33;;;13.73;;
75429;SDS011;64127;51.488;5.462;2022-11-20T05:15:34;14.97;;;13.17;;
75429;SDS011;64127;51.488;5.462;2022-11-20T05:18:07;15.73;;;13.67;;
75429;SDS011;64127;51.488;5.462;2022-11-20T05:20:38;15.20;;;13.60;;
75429;SDS011;64127;51.488;5.462;2022-11-20T05:23:10;16.47;;;14.77;;
75429;SDS011;64127;51.488;5.462;2022-11-20T05:25:42;16.07;;;14.37;;
75429;SDS011;64127;51.488;5.462;2022-11-20T05:28:14;16.03;;;13.73;;
75429;SDS011;64127;51.488;5.462;2022-11-20T05:30:46;15.23;;;13.60;;
75429;SDS011;64127;51.488;5.462;2022-11-20T05:33:20;16.07;;;13.80;;
75429;SDS011;64127;51.488;5.462;2022-11-20T05:35:53;16.37;;;13.70;;
75429;SDS011;64127;51.488;5.462;2022-11-20T05:38:30;15.23;;;13.40;;
75429;SDS011;64127;51.488;5.462;2022-11-20T05:41:03;14.43;;;12.93;;
75429;SDS011;64127;51.488;5.462;2022-11-20T05:43:42;14.23;;;12.63;;
75429;SDS011;64127;51.488;5.462;2022-11-20T05:46:18;14.93;;;12.97;;
75429;SDS011;64127;51.488;5.462;2022-11-20T05:48:59;14.53;;;12.40;;
75429;SDS011;64127;51.488;5.462;2022-11-20T05:51:30;14.50;;;13.00;;
75429;SDS011;64127;51.488;5.462;2022-11-20T05:54:02;14.63;;;12.37;;
75429;SDS011;64127;51.488;5.462;2022-11-20T05:56:34;16.57;;;12.77;;
75429;SDS011;64127;51.488;5.462;2022-11-20T05:59:06;15.27;;;13.30;;
75429;SDS011;64127;51.488;5.462;2022-11-20T06:01:38;14.73;;;13.10;;
75429;SDS011;64127;51.488;5.462;2022-11-20T06:04:10;14.57;;;13.07;;
75429;SDS011;64127;51.488;5.462;2022-11-20T06:06:42;14.33;;;12.83;;
75429;SDS011;64127;51.488;5.462;2022-11-20T06:09:14;15.90;;;13.03;;
75429;SDS011;64127;51.488;5.462;2022-11-20T06:11:46;15.37;;;13.77;;
75429;SDS011;64127;51.488;5.462;2022-11-20T06:14:18;15.53;;;13.83;;
75429;SDS011;64127;51.488;5.462;2022-11-20T06:16:50;14.90;;;13.30;;
75429;SDS011;64127;51.488;5.462;2022-11-20T06:19:22;15.07;;;13.53;;
75429;SDS011;64127;51.488;5.462;2022-11-20T06:21:54;15.33;;;13.83;;
75429;SDS011;64127;51.488;5.462;2022-11-20T06:24:26;17.93;;;15.20;;
75429;SDS011;64127;51.488;5.462;2022-11-20T06:26:58;17.27;;;14.47;;
75429;SDS011;64127;51.488;5.462;2022-11-20T06:29:30;16.77;;;13.43;;
75429;SDS011;64127;51.488;5.462;2022-11-20T06:32:04;14.93;;;12.83;;
75429;SDS011;64127;51.488;5.462;2022-11-20T06:34:36;14.60;;;13.03;;
75429;SDS011;64127;51.488;5.462;2022-11-20T06:37:08;14.00;;;12.50;;
75429;SDS011;64127;51.488;5.462;2022-11-20T06:39:40;14.53;;;12.90;;
75429;SDS011;64127;51.488;5.462;2022-11-20T06:42:12;14.73;;;13.17;;
75429;SDS011;64127;51.488;5.462;2022-11-20T06:44:44;14.43;;;12.93;;
75429;SDS011;64127;51.488;5.462;2022-11-20T06:47:16;14.50;;;12.90;;
75429;SDS011;64127;51.488;5.462;2022-11-20T06:49:47;13.50;;;12.10;;
75429;SDS011;64127;51.488;5.462;2022-11-20T06:52:19;15.13;;;13.43;;
75429;SDS011;64127;51.488;5.462;2022-11-20T06:54:51;13.90;;;12.50;;
75429;SDS011;64127;51.488;5.462;2022-11-20T06:57:23;12.97;;;11.30;;
75429;SDS011;64127;51.488;5.462;2022-11-20T06:59:55;14.10;;;12.60;;
75429;SDS011;64127;51.488;5.462;2022-11-20T07:02:27;13.97;;;12.03;;
75429;SDS011;64127;51.488;5.462;2022-11-20T07:04:59;14.20;;;11.90;;
75429;SDS011;64127;51.488;5.462;2022-11-20T07:07:31;12.77;;;11.13;;
75429;SDS011;64127;51.488;5.462;2022-11-20T07:10:03;13.10;;;11.80;;
75429;SDS011;64127;51.488;5.462;2022-11-20T07:12:36;12.83;;;11.47;;
75429;SDS011;64127;51.488;5.462;2022-11-20T07:15:08;14.07;;;12.00;;
75429;SDS011;64127;51.488;5.462;2022-11-20T07:17:40;13.10;;;11.80;;
75429;SDS011;64127;51.488;5.462;2022-11-20T07:20:12;13.87;;;12.07;;
75429;SDS011;64127;51.488;5.462;2022-11-20T07:22:45;13.40;;;12.00;;
75429;SDS011;64127;51.488;5.462;2022-11-20T07:25:17;13.47;;;12.07;;
75429;SDS011;64127;51.488;5.462;2022-11-20T07:27:49;13.93;;;12.37;;
75429;SDS011;64127;51.488;5.462;2022-11-20T07:30:21;13.07;;;11.77;;
75429;SDS011;64127;51.488;5.462;2022-11-20T07:32:53;14.50;;;11.77;;
75429;SDS011;64127;51.488;5.462;2022-11-20T07:35:27;13.87;;;12.43;;
75429;SDS011;64127;51.488;5.462;2022-11-20T07:37:58;13.60;;;12.20;;
75429;SDS011;64127;51.488;5.462;2022-11-20T07:40:30;13.83;;;11.73;;
75429;SDS011;64127;51.488;5.462;2022-11-20T07:43:02;14.97;;;11.83;;
75429;SDS011;64127;51.488;5.462;2022-11-20T07:45:34;13.67;;;12.07;;
75429;SDS011;64127;51.488;5.462;2022-11-20T07:48:06;13.10;;;11.80;;
75429;SDS011;64127;51.488;5.462;2022-11-20T07:50:39;13.60;;;12.20;;
75429;SDS011;64127;51.488;5.462;2022-11-20T07:53:11;13.27;;;11.87;;
75429;SDS011;64127;51.488;5.462;2022-11-20T07:55:43;13.10;;;11.77;;
75429;SDS011;64127;51.488;5.462;2022-11-20T07:58:15;12.47;;;11.27;;
75429;SDS011;64127;51.488;5.462;2022-11-20T08:00:47;13.90;;;12.27;;
75429;SDS011;64127;51.488;5.462;2022-11-20T08:03:19;12.70;;;11.37;;
75429;SDS011;64127;51.488;5.462;2022-11-20T08:06:00;13.73;;;12.33;;
75429;SDS011;64127;51.488;5.462;2022-11-20T08:08:33;14.70;;;12.33;;
75429;SDS011;64127;51.488;5.462;2022-11-20T08:11:12;13.20;;;11.90;;
75429;SDS011;64127;51.488;5.462;2022-11-20T08:14:02;12.70;;;11.40;;
75429;SDS011;64127;51.488;5.462;2022-11-20T08:16:45;12.47;;;11.23;;
75429;SDS011;64127;51.488;5.462;2022-11-20T08:19:19;13.27;;;11.87;;
75429;SDS011;64127;51.488;5.462;2022-11-20T08:21:52;13.73;;;12.13;;
75429;SDS011;64127;51.488;5.462;2022-11-20T08:24:23;14.27;;;11.67;;
75429;SDS011;64127;51.488;5.462;2022-11-20T08:26:57;12.77;;;11.47;;
75429;SDS011;64127;51.488;5.462;2022-11-20T08:29:30;14.33;;;12.77;;
75429;SDS011;64127;51.488;5.462;2022-11-20T08:32:02;13.90;;;12.40;;
75429;SDS011;64127;51.488;5.462;2022-11-20T08:34:34;13.40;;;12.03;;
75429;SDS011;64127;51.488;5.462;2022-11-20T08:37:06;15.00;;;12.20;;
75429;SDS011;64127;51.488;5.462;2022-11-20T08:39:38;13.93;;;12.43;;
75429;SDS011;64127;51.488;5.462;2022-11-20T08:42:10;14.67;;;12.70;;
75429;SDS011;64127;51.488;5.462;2022-11-20T08:44:42;15.43;;;12.53;;
75429;SDS011;64127;51.488;5.462;2022-11-20T08:47:14;14.07;;;12.67;;
75429;SDS011;64127;51.488;5.462;2022-11-20T08:49:46;13.87;;;12.23;;
75429;SDS011;64127;51.488;5.462;2022-11-20T08:52:18;14.40;;;12.90;;
75429;SDS011;64127;51.488;5.462;2022-11-20T08:54:50;14.77;;;13.10;;
75429;SDS011;64127;51.488;5.462;2022-11-20T08:57:21;16.83;;;13.30;;
75429;SDS011;64127;51.488;5.462;2022-11-20T08:59:54;14.60;;;13.00;;
75429;SDS011;64127;51.488;5.462;2022-11-20T09:02:46;14.70;;;13.10;;
75429;SDS011;64127;51.488;5.462;2022-11-20T09:05:18;16.33;;;13.33;;
75429;SDS011;64127;51.488;5.462;2022-11-20T09:07:50;16.37;;;13.80;;
75429;SDS011;64127;51.488;5.462;2022-11-20T09:10:22;17.50;;;14.30;;
75429;SDS011;64127;51.488;5.462;2022-11-20T09:12:55;16.53;;;14.37;;
75429;SDS011;64127;51.488;5.462;2022-11-20T09:15:27;19.20;;;14.37;;
75429;SDS011;64127;51.488;5.462;2022-11-20T09:18:01;17.77;;;14.03;;
75429;SDS011;64127;51.488;5.462;2022-11-20T09:20:35;17.03;;;14.73;;
75429;SDS011;64127;51.488;5.462;2022-11-20T09:23:08;20.27;;;14.60;;
75429;SDS011;64127;51.488;5.462;2022-11-20T09:25:40;17.20;;;14.83;;
75429;SDS011;64127;51.488;5.462;2022-11-20T09:28:12;21.27;;;15.30;;
75429;SDS011;64127;51.488;5.462;2022-11-20T09:30:44;19.47;;;16.07;;
75429;SDS011;64127;51.488;5.462;2022-11-20T09:33:16;20.03;;;14.87;;
75429;SDS011;64127;51.488;5.462;2022-11-20T09:35:49;21.90;;;16.77;;
75429;SDS011;64127;51.488;5.462;2022-11-20T09:38:21;20.73;;;15.90;;
75429;SDS011;64127;51.488;5.462;2022-11-20T09:41:06;23.07;;;17.30;;
75429;SDS011;64127;51.488;5.462;2022-11-20T09:47:25;26.73;;;18.67;;
75429;SDS011;64127;51.488;5.462;2022-11-20T09:50:43;25.37;;;17.53;;
75429;SDS011;64127;51.488;5.462;2022-11-20T09:56:56;27.30;;;18.83;;
75429;SDS011;64127;51.488;5.462;2022-11-20T09:59:50;28.20;;;19.07;;
75429;SDS011;64127;51.488;5.462;2022-11-20T10:02:30;29.23;;;19.60;;
75429;SDS011;64127;51.488;5.462;2022-11-20T10:08:16;28.13;;;19.80;;
75429;SDS011;64127;51.488;5.462;2022-11-20T10:11:07;28.83;;;20.53;;
75429;SDS011;64127;51.488;5.462;2022-11-20T10:26:16;28.80;;;21.20;;
75429;SDS011;64127;51.488;5.462;2022-11-20T10:29:47;27.23;;;19.20;;
75429;SDS011;64127;51.488;5.462;2022-11-20T10:32:50;28.87;;;20.37;;
75429;SDS011;64127;51.488;5.462;2022-11-20T10:35:28;28.90;;;20.67;;
75429;SDS011;64127;51.488;5.462;2022-11-20T10:38:23;31.23;;;20.70;;
75429;SDS011;64127;51.488;5.462;2022-11-20T10:41:16;28.83;;;20.70;;
75429;SDS011;64127;51.488;5.462;2022-11-20T10:44:02;28.47;;;20.27;;
75429;SDS011;64127;51.488;5.462;2022-11-20T10:46:44;32.03;;;21.63;;
75429;SDS011;64127;51.488;5.462;2022-11-20T10:49:18;30.13;;;20.87;;
75429;SDS011;64127;51.488;5.462;2022-11-20T10:54:44;26.73;;;19.90;;
75429;SDS011;64127;51.488;5.462;2022-11-20T11:00:49;24.20;;;18.80;;
75429;SDS011;64127;51.488;5.462;2022-11-20T11:03:28;26.97;;;19.93;;
75429;SDS011;64127;51.488;5.462;2022-11-20T11:06:17;27.40;;;19.80;;
75429;SDS011;64127;51.488;5.462;2022-11-20T11:09:24;28.17;;;20.90;;
75429;SDS011;64127;51.488;5.462;2022-11-20T11:12:10;27.13;;;21.00;;
75429;SDS011;64127;51.488;5.462;2022-11-20T11:14:50;30.13;;;21.37;;
75429;SDS011;64127;51.488;5.462;2022-11-20T11:17:29;51.57;;;23.27;;
75429;SDS011;64127;51.488;5.462;2022-11-20T11:22:48;33.77;;;22.67;;
75429;SDS011;64127;51.488;5.462;2022-11-20T11:25:34;33.63;;;22.90;;
75429;SDS011;64127;51.488;5.462;2022-11-20T11:30:49;31.53;;;23.70;;
75429;SDS011;64127;51.488;5.462;2022-11-20T11:33:22;35.97;;;24.27;;
75429;SDS011;64127;51.488;5.462;2022-11-20T11:36:03;37.70;;;25.37;;
75429;SDS011;64127;51.488;5.462;2022-11-20T11:38:52;34.30;;;25.17;;
75429;SDS011;64127;51.488;5.462;2022-11-20T11:41:26;37.60;;;25.13;;
75429;SDS011;64127;51.488;5.462;2022-11-20T11:44:14;36.67;;;25.37;;
75429;SDS011;64127;51.488;5.462;2022-11-20T11:50:15;35.40;;;24.50;;
75429;SDS011;64127;51.488;5.462;2022-11-20T11:56:02;32.53;;;24.33;;
75429;SDS011;64127;51.488;5.462;2022-11-20T11:58:47;33.53;;;24.07;;
75429;SDS011;64127;51.488;5.462;2022-11-20T12:01:33;35.60;;;24.70;;
75429;SDS011;64127;51.488;5.462;2022-11-20T12:04:19;32.73;;;23.50;;
75429;SDS011;64127;51.488;5.462;2022-11-20T12:07:47;33.57;;;23.10;;
75429;SDS011;64127;51.488;5.462;2022-11-20T12:16:58;34.63;;;24.27;;
75429;SDS011;64127;51.488;5.462;2022-11-20T12:19:33;33.53;;;24.20;;
75429;SDS011;64127;51.488;5.462;2022-11-20T12:37:29;33.47;;;23.63;;
75429;SDS011;64127;51.488;5.462;2022-11-20T12:40:47;34.30;;;22.73;;
75429;SDS011;64127;51.488;5.462;2022-11-20T12:47:26;32.30;;;22.57;;
75429;SDS011;64127;51.488;5.462;2022-11-20T12:53:40;35.87;;;24.07;;
75429;SDS011;64127;51.488;5.462;2022-11-20T13:02:45;34.97;;;24.20;;
75429;SDS011;64127;51.488;5.462;2022-11-20T13:08:35;36.60;;;24.80;;
75429;SDS011;64127;51.488;5.462;2022-11-20T13:14:34;34.37;;;23.67;;
75429;SDS011;64127;51.488;5.462;2022-11-20T13:19:56;39.57;;;27.30;;
75429;SDS011;64127;51.488;5.462;2022-11-20T13:22:42;45.85;;;34.28;;
75429;SDS011;64127;51.488;5.462;2022-11-20T13:25:27;37.07;;;27.33;;
75429;SDS011;64127;51.488;5.462;2022-11-20T13:30:49;37.57;;;25.20;;
75429;SDS011;64127;51.488;5.462;2022-11-20T13:33:34;38.50;;;24.83;;
75429;SDS011;64127;51.488;5.462;2022-11-20T13:36:22;36.37;;;24.50;;
75429;SDS011;64127;51.488;5.462;2022-11-20T13:38:57;37.17;;;24.00;;
75429;SDS011;64127;51.488;5.462;2022-11-20T13:41:31;37.40;;;24.40;;
75429;SDS011;64127;51.488;5.462;2022-11-20T13:46:44;37.63;;;24.57;;
75429;SDS011;64127;51.488;5.462;2022-11-20T13:49:25;37.47;;;25.17;;
75429;SDS011;64127;51.488;5.462;2022-11-20T13:52:22;34.67;;;23.93;;
75429;SDS011;64127;51.488;5.462;2022-11-20T13:55:39;34.73;;;23.00;;
75429;SDS011;64127;51.488;5.462;2022-11-20T14:01:19;34.90;;;24.33;;
75429;SDS011;64127;51.488;5.462;2022-11-20T14:03:55;34.27;;;23.43;;
75429;SDS011;64127;51.488;5.462;2022-11-20T14:06:44;37.10;;;24.87;;
75429;SDS011;64127;51.488;5.462;2022-11-20T14:09:25;36.03;;;24.03;;
75429;SDS011;64127;51.488;5.462;2022-11-20T14:12:03;35.23;;;24.27;;
75429;SDS011;64127;51.488;5.462;2022-11-20T14:14:50;33.10;;;23.23;;
75429;SDS011;64127;51.488;5.462;2022-11-20T14:20:06;34.67;;;24.10;;
75429;SDS011;64127;51.488;5.462;2022-11-20T14:22:48;36.33;;;23.77;;
75429;SDS011;64127;51.488;5.462;2022-11-20T14:25:25;34.53;;;25.23;;
75429;SDS011;64127;51.488;5.462;2022-11-20T14:28:02;35.00;;;24.97;;
75429;SDS011;64127;51.488;5.462;2022-11-20T14:33:15;39.57;;;24.40;;
75429;SDS011;64127;51.488;5.462;2022-11-20T14:35:49;39.67;;;26.60;;
75429;SDS011;64127;51.488;5.462;2022-11-20T14:38:26;35.70;;;25.20;;
75429;SDS011;64127;51.488;5.462;2022-11-20T14:41:07;38.87;;;25.17;;
75429;SDS011;64127;51.488;5.462;2022-11-20T14:43:52;39.40;;;25.43;;
75429;SDS011;64127;51.488;5.462;2022-11-20T14:46:28;40.97;;;25.33;;
75429;SDS011;64127;51.488;5.462;2022-11-20T14:49:03;41.27;;;25.87;;
75429;SDS011;64127;51.488;5.462;2022-11-20T14:51:37;40.70;;;26.07;;
75429;SDS011;64127;51.488;5.462;2022-11-20T14:54:18;37.70;;;26.33;;
75429;SDS011;64127;51.488;5.462;2022-11-20T14:57:00;40.43;;;27.33;;
75429;SDS011;64127;51.488;5.462;2022-11-20T14:59:35;42.67;;;26.30;;
75429;SDS011;64127;51.488;5.462;2022-11-20T15:02:10;41.57;;;26.67;;
75429;SDS011;64127;51.488;5.462;2022-11-20T15:04:47;37.20;;;24.73;;
75429;SDS011;64127;51.488;5.462;2022-11-20T15:07:25;41.80;;;26.10;;
75429;SDS011;64127;51.488;5.462;2022-11-20T15:10:10;40.07;;;25.53;;
75429;SDS011;64127;51.488;5.462;2022-11-20T15:12:59;42.57;;;26.67;;
75429;SDS011;64127;51.488;5.462;2022-11-20T15:15:46;40.13;;;25.50;;
75429;SDS011;64127;51.488;5.462;2022-11-20T15:18:47;42.13;;;25.23;;
75429;SDS011;64127;51.488;5.462;2022-11-20T15:21:19;40.47;;;25.60;;
75429;SDS011;64127;51.488;5.462;2022-11-20T15:23:54;43.53;;;26.10;;
75429;SDS011;64127;51.488;5.462;2022-11-20T15:26:29;43.30;;;25.93;;
75429;SDS011;64127;51.488;5.462;2022-11-20T15:29:02;46.23;;;26.93;;
75429;SDS011;64127;51.488;5.462;2022-11-20T15:31:35;41.43;;;26.83;;
75429;SDS011;64127;51.488;5.462;2022-11-20T15:34:10;41.73;;;25.97;;
75429;SDS011;64127;51.488;5.462;2022-11-20T15:36:43;42.17;;;25.90;;
75429;SDS011;64127;51.488;5.462;2022-11-20T15:39:15;38.87;;;25.43;;
75429;SDS011;64127;51.488;5.462;2022-11-20T15:41:47;42.67;;;26.17;;
75429;SDS011;64127;51.488;5.462;2022-11-20T15:44:19;42.17;;;26.47;;
75429;SDS011;64127;51.488;5.462;2022-11-20T15:46:51;41.23;;;24.57;;
75429;SDS011;64127;51.488;5.462;2022-11-20T15:49:24;39.20;;;24.30;;
75429;SDS011;64127;51.488;5.462;2022-11-20T15:51:56;39.83;;;25.67;;
75429;SDS011;64127;51.488;5.462;2022-11-20T15:54:28;39.23;;;24.10;;
75429;SDS011;64127;51.488;5.462;2022-11-20T15:57:01;58.78;;;36.33;;
75429;SDS011;64127;51.488;5.462;2022-11-20T15:59:34;46.97;;;28.00;;
75429;SDS011;64127;51.488;5.462;2022-11-20T16:02:09;40.77;;;26.27;;
75429;SDS011;64127;51.488;5.462;2022-11-20T16:04:49;42.17;;;24.23;;
75429;SDS011;64127;51.488;5.462;2022-11-20T16:07:21;41.27;;;25.03;;
75429;SDS011;64127;51.488;5.462;2022-11-20T16:09:53;40.10;;;23.27;;
75429;SDS011;64127;51.488;5.462;2022-11-20T16:12:27;38.60;;;22.10;;
75429;SDS011;64127;51.488;5.462;2022-11-20T16:15:18;38.43;;;22.43;;
75429;SDS011;64127;51.488;5.462;2022-11-20T16:18:10;34.93;;;20.97;;
75429;SDS011;64127;51.488;5.462;2022-11-20T16:20:45;37.63;;;22.37;;
75429;SDS011;64127;51.488;5.462;2022-11-20T16:23:19;35.67;;;21.13;;
75429;SDS011;64127;51.488;5.462;2022-11-20T16:25:52;37.67;;;21.87;;
75429;SDS011;64127;51.488;5.462;2022-11-20T16:28:24;34.47;;;20.47;;
75429;SDS011;64127;51.488;5.462;2022-11-20T16:30:56;33.40;;;21.53;;
75429;SDS011;64127;51.488;5.462;2022-11-20T16:33:28;34.53;;;20.40;;
75429;SDS011;64127;51.488;5.462;2022-11-20T16:36:13;33.83;;;19.17;;
75429;SDS011;64127;51.488;5.462;2022-11-20T16:38:46;35.23;;;19.73;;
75429;SDS011;64127;51.488;5.462;2022-11-20T16:41:23;30.87;;;20.07;;
75429;SDS011;64127;51.488;5.462;2022-11-20T16:43:58;32.23;;;20.80;;
75429;SDS011;64127;51.488;5.462;2022-11-20T16:46:33;30.43;;;18.50;;
75429;SDS011;64127;51.488;5.462;2022-11-20T16:49:06;26.10;;;17.47;;
75429;SDS011;64127;51.488;5.462;2022-11-20T16:51:43;24.87;;;16.70;;
75429;SDS011;64127;51.488;5.462;2022-11-20T16:54:15;23.03;;;14.83;;
75429;SDS011;64127;51.488;5.462;2022-11-20T16:56:51;21.80;;;14.60;;
75429;SDS011;64127;51.488;5.462;2022-11-20T16:59:24;17.97;;;12.57;;
75429;SDS011;64127;51.488;5.462;2022-11-20T17:01:56;18.93;;;12.90;;